Time;durP1;ratioP1;P1;durP2;ratioP2;P2;SDS_P1;SDS_P2;PMS_P1;PMS_P2;Temp;Humidity;BMP_temperature;BMP_pressure;BME280_temperature;BME280_humidity;BME280_pressure;Samples;Min_cycle;Max_cycle;Signal;HPM_P1;HPM_P2
2023/05/22 00:00:51;;;;;;;10.15;5.38;;;15.90;99.90;;;;;;5050493;28;20957;-77
2023/05/22 00:03:17;;;;;;;7.45;5.65;;;15.60;99.90;;;;;;5052755;28;20044;-76
2023/05/22 00:05:43;;;;;;;8.50;5.88;;;15.50;99.90;;;;;;5051859;28;20028;-76
2023/05/22 00:08:11;;;;;;;8.13;5.45;;;15.30;99.90;;;;;;5048199;28;20037;-77
2023/05/22 00:10:37;;;;;;;8.43;4.95;;;15.40;99.90;;;;;;5055618;28;20099;-76
2023/05/22 00:13:03;;;;;;;8.38;5.55;;;15.60;99.90;;;;;;5048609;28;20040;-77
2023/05/22 00:15:29;;;;;;;9.00;5.88;;;15.80;99.90;;;;;;5046864;28;20041;-77
2023/05/22 00:17:55;;;;;;;12.43;6.90;;;16.00;99.90;;;;;;5048997;28;20119;-76
2023/05/22 00:20:22;;;;;;;8.63;5.45;;;16.10;99.90;;;;;;5051875;28;20029;-76
2023/05/22 00:22:48;;;;;;;10.02;5.82;;;15.90;99.90;;;;;;5048606;28;20017;-77
2023/05/22 00:25:17;;;;;;;7.15;5.10;;;15.80;99.90;;;;;;5052985;28;20516;-77
2023/05/22 00:27:43;;;;;;;7.60;5.22;;;15.90;99.90;;;;;;5048862;28;20029;-77
2023/05/22 00:30:09;;;;;;;9.65;6.07;;;15.90;99.90;;;;;;5050975;28;20441;-77
2023/05/22 00:32:35;;;;;;;7.53;5.40;;;15.90;99.90;;;;;;5054140;28;20033;-77
2023/05/22 00:35:01;;;;;;;8.38;5.53;;;15.90;99.90;;;;;;5050616;28;20051;-77
2023/05/22 00:37:26;;;;;;;7.18;5.03;;;15.90;99.90;;;;;;5047461;28;20403;-76
2023/05/22 00:39:52;;;;;;;8.82;5.38;;;15.90;99.90;;;;;;5049051;28;20029;-77
2023/05/22 00:42:18;;;;;;;7.10;4.93;;;15.90;99.90;;;;;;5051083;28;20101;-77
2023/05/22 00:44:43;;;;;;;10.35;5.43;;;16.00;99.90;;;;;;5050182;28;20463;-77
2023/05/22 00:47:09;;;;;;;6.70;4.50;;;16.10;99.90;;;;;;5049325;28;20360;-77
2023/05/22 00:49:35;;;;;;;8.25;5.05;;;16.20;99.90;;;;;;5047870;28;20071;-77
2023/05/22 00:52:01;;;;;;;8.43;5.00;;;16.20;99.90;;;;;;5047466;28;20086;-77
2023/05/22 00:54:28;;;;;;;6.10;4.50;;;16.30;99.90;;;;;;5051547;28;20094;-76
2023/05/22 00:56:54;;;;;;;8.25;5.45;;;16.20;99.90;;;;;;5048436;28;20057;-77
2023/05/22 00:59:20;;;;;;;8.63;5.38;;;16.00;99.90;;;;;;5049329;28;20033;-76
2023/05/22 01:01:46;;;;;;;9.40;5.18;;;15.80;99.90;;;;;;5052419;28;20124;-77
2023/05/22 01:04:13;;;;;;;8.85;5.50;;;15.90;99.90;;;;;;5048562;28;20371;-77
2023/05/22 01:06:40;;;;;;;7.05;4.82;;;16.00;99.90;;;;;;5057024;28;20043;-77
2023/05/22 01:09:06;;;;;;;9.48;5.22;;;16.10;99.90;;;;;;5051420;28;20033;-77
2023/05/22 01:11:42;;;;;;;7.35;4.70;;;16.10;99.90;;;;;;5052069;28;20397;-77
2023/05/22 01:14:20;;;;;;;8.18;5.13;;;16.20;99.90;;;;;;5047616;28;20025;-77
2023/05/22 01:16:58;;;;;;;9.93;5.28;;;16.40;99.90;;;;;;5048158;28;20091;-77
2023/05/22 01:19:59;;;;;;;6.72;4.63;;;16.20;99.90;;;;;;5056399;28;20397;-77
2023/05/22 01:22:45;;;;;;;6.55;4.82;;;16.20;99.90;;;;;;5054801;28;20032;-76
2023/05/22 01:25:10;;;;;;;6.13;4.72;;;16.10;99.90;;;;;;5051121;28;20021;-76
2023/05/22 01:27:41;;;;;;;13.30;5.07;;;15.90;99.90;;;;;;5054882;28;20033;-77
2023/05/22 01:30:37;;;;;;;9.77;5.25;;;15.90;99.90;;;;;;5057609;28;20036;-77
2023/05/22 01:33:05;;;;;;;7.88;5.07;;;15.80;99.90;;;;;;5048450;28;20150;-77
2023/05/22 01:35:33;;;;;;;9.27;4.75;;;15.70;99.90;;;;;;5051074;28;20041;-77
2023/05/22 01:38:00;;;;;;;8.98;5.38;;;15.70;99.90;;;;;;5049246;28;20120;-78
2023/05/22 01:40:27;;;;;;;7.68;5.40;;;15.60;99.90;;;;;;5051495;28;20025;-76
2023/05/22 01:42:52;;;;;;;9.48;5.88;;;15.70;99.90;;;;;;5047322;28;20033;-77
2023/05/22 01:45:20;;;;;;;8.25;5.15;;;15.70;99.90;;;;;;5049677;28;20124;-77
2023/05/22 01:47:46;;;;;;;8.80;5.43;;;15.70;99.90;;;;;;5051928;28;20025;-77
2023/05/22 01:50:12;;;;;;;8.13;5.45;;;15.70;99.90;;;;;;5056041;28;20032;-77
2023/05/22 01:52:51;;;;;;;8.70;5.00;;;15.60;99.90;;;;;;5049513;28;20064;-77
2023/05/22 01:55:28;;;;;;;12.63;5.55;;;15.60;99.90;;;;;;5057167;28;20040;-77
2023/05/22 01:58:15;;;;;;;7.00;5.35;;;15.70;99.90;;;;;;5050551;28;20025;-77
2023/05/22 02:00:44;;;;;;;7.75;5.45;;;15.70;99.90;;;;;;5048692;28;20120;-75
2023/05/22 02:03:16;;;;;;;6.22;4.63;;;15.60;99.90;;;;;;5054047;28;20029;-76
2023/05/22 02:05:44;;;;;;;7.25;5.55;;;15.50;99.90;;;;;;5053009;28;20013;-77
2023/05/22 02:08:12;;;;;;;7.70;5.25;;;15.50;99.90;;;;;;5050139;28;20021;-77
2023/05/22 02:10:39;;;;;;;8.77;5.18;;;15.60;99.90;;;;;;5048307;28;20120;-77
2023/05/22 02:13:05;;;;;;;7.30;5.15;;;15.70;99.90;;;;;;5054461;28;20013;-77
2023/05/22 02:15:30;;;;;;;7.60;4.88;;;15.70;99.90;;;;;;5046909;28;20502;-77
2023/05/22 02:17:58;;;;;;;7.28;5.28;;;15.60;99.90;;;;;;5048266;28;20032;-77
2023/05/22 02:20:24;;;;;;;7.28;4.53;;;15.60;99.90;;;;;;5052826;28;20545;-77
2023/05/22 02:22:50;;;;;;;7.97;4.82;;;15.60;99.90;;;;;;5052460;28;20033;-77
2023/05/22 02:25:16;;;;;;;11.18;5.43;;;15.60;99.90;;;;;;5058779;28;20403;-77
2023/05/22 02:27:43;;;;;;;9.27;5.20;;;15.60;99.90;;;;;;5048073;28;20032;-77
2023/05/22 02:30:10;;;;;;;9.20;5.00;;;15.50;99.90;;;;;;5048182;28;20040;-76
2023/05/22 02:32:37;;;;;;;7.72;5.10;;;15.60;99.90;;;;;;5058388;28;20033;-77
2023/05/22 02:35:03;;;;;;;8.60;5.22;;;15.60;99.90;;;;;;5061993;28;20103;-76
2023/05/22 02:37:29;;;;;;;8.65;5.68;;;15.80;99.90;;;;;;5057518;28;20048;-77
2023/05/22 02:39:56;;;;;;;9.38;4.95;;;15.80;99.90;;;;;;5060323;28;20372;-76
2023/05/22 02:42:22;;;;;;;8.65;5.18;;;15.90;99.90;;;;;;5053439;28;20033;-78
2023/05/22 02:44:47;;;;;;;6.70;4.68;;;15.90;99.90;;;;;;5055629;28;20045;-77
2023/05/22 02:47:13;;;;;;;9.40;4.90;;;16.00;99.90;;;;;;5050239;28;20037;-77
2023/05/22 02:49:39;;;;;;;7.28;5.03;;;16.00;99.90;;;;;;5051915;28;20029;-79
2023/05/22 02:52:05;;;;;;;9.38;5.10;;;15.90;99.90;;;;;;5058150;28;20387;-77
2023/05/22 02:54:31;;;;;;;7.30;5.03;;;15.80;99.90;;;;;;5056811;28;20047;-76
2023/05/22 02:56:56;;;;;;;7.18;5.03;;;15.70;99.90;;;;;;5057211;28;20045;-78
2023/05/22 02:59:22;;;;;;;6.90;4.88;;;15.70;99.90;;;;;;5051747;28;20039;-76
2023/05/22 03:01:48;;;;;;;6.78;4.40;;;15.70;99.90;;;;;;5050468;28;20033;-78
2023/05/22 03:04:13;;;;;;;9.30;5.05;;;15.70;99.90;;;;;;5047365;28;20443;-79
2023/05/22 03:06:40;;;;;;;9.43;4.85;;;15.80;99.90;;;;;;5046905;28;20647;-81
2023/05/22 03:09:07;;;;;;;8.10;5.65;;;15.70;99.90;;;;;;5050382;28;22690;-79
2023/05/22 03:11:33;;;;;;;9.23;5.30;;;15.70;99.90;;;;;;5051821;28;20025;-77
2023/05/22 03:13:59;;;;;;;8.50;4.57;;;15.60;99.90;;;;;;5047216;28;20099;-79
2023/05/22 03:16:25;;;;;;;8.93;4.88;;;15.40;99.90;;;;;;5044946;28;20531;-79
2023/05/22 03:19:13;;;;;;;7.30;4.93;;;15.10;99.90;;;;;;5052982;28;20039;-76
2023/05/22 03:21:40;;;;;;;7.97;5.07;;;15.20;99.90;;;;;;5042926;28;20035;-81
2023/05/22 03:24:06;;;;;;;7.63;5.07;;;15.10;99.90;;;;;;5046164;28;20025;-79
2023/05/22 03:26:32;;;;;;;10.90;5.82;;;14.90;99.90;;;;;;5048454;28;20029;-78
2023/05/22 03:28:58;;;;;;;8.35;5.28;;;15.00;99.90;;;;;;5045484;28;20087;-78
2023/05/22 03:31:25;;;;;;;7.45;4.90;;;15.00;99.90;;;;;;5047999;28;20045;-79
2023/05/22 03:33:50;;;;;;;8.98;5.00;;;14.90;99.90;;;;;;5047050;28;20049;-79
2023/05/22 03:36:17;;;;;;;9.07;5.28;;;14.90;99.90;;;;;;5052273;28;20067;-78
2023/05/22 03:38:43;;;;;;;7.95;5.35;;;14.90;99.90;;;;;;5046056;28;20037;-79
2023/05/22 03:41:09;;;;;;;8.82;5.00;;;15.00;99.90;;;;;;5048792;28;20696;-78
2023/05/22 03:43:34;;;;;;;10.15;5.38;;;15.00;99.90;;;;;;5049123;28;20055;-78
2023/05/22 03:46:00;;;;;;;8.05;5.43;;;14.90;99.90;;;;;;5046223;28;20494;-79
2023/05/22 03:48:26;;;;;;;7.05;4.53;;;15.10;99.90;;;;;;5044884;28;20052;-77
2023/05/22 03:50:51;;;;;;;10.02;5.38;;;15.30;99.90;;;;;;5050586;28;20575;-79
2023/05/22 03:53:17;;;;;;;10.20;5.13;;;15.20;99.90;;;;;;5047518;28;20036;-79
2023/05/22 03:55:43;;;;;;;8.45;4.70;;;15.20;99.90;;;;;;5044417;28;20051;-78
2023/05/22 03:58:08;;;;;;;6.95;4.55;;;15.30;99.90;;;;;;5044749;28;20041;-79
2023/05/22 04:00:34;;;;;;;9.27;5.90;;;15.30;99.90;;;;;;5042937;28;20029;-78
2023/05/22 04:03:00;;;;;;;7.65;4.50;;;15.10;99.90;;;;;;5046504;28;20024;-78
2023/05/22 04:05:26;;;;;;;6.22;4.22;;;15.10;99.90;;;;;;5043289;28;20032;-78
2023/05/22 04:07:51;;;;;;;7.47;5.03;;;15.00;99.90;;;;;;5045781;28;20032;-79
2023/05/22 04:10:17;;;;;;;9.63;5.28;;;15.10;99.90;;;;;;5043239;28;20091;-80
2023/05/22 04:12:42;;;;;;;6.75;4.57;;;15.30;99.90;;;;;;5045679;28;20131;-79
2023/05/22 04:15:08;;;;;;;8.20;5.03;;;15.30;99.90;;;;;;5047724;28;20467;-79
2023/05/22 04:17:38;;;;;;;9.35;4.82;;;15.40;99.90;;;;;;5045115;28;20028;-78
2023/05/22 04:20:05;;;;;;;8.70;4.60;;;15.30;99.90;;;;;;5045384;28;20033;-78
2023/05/22 04:22:32;;;;;;;6.93;4.93;;;15.00;99.90;;;;;;5048476;28;20646;-79
2023/05/22 04:24:57;;;;;;;6.13;4.30;;;15.40;99.90;;;;;;5044967;28;20071;-79
2023/05/22 04:27:23;;;;;;;9.65;4.97;;;15.30;99.90;;;;;;5049729;28;20033;-78
2023/05/22 04:29:50;;;;;;;9.10;5.07;;;15.00;99.90;;;;;;5041061;28;20082;-78
2023/05/22 04:32:17;;;;;;;6.60;4.28;;;15.10;99.90;;;;;;5040833;28;20029;-77
2023/05/22 04:34:48;;;;;;;7.45;4.72;;;14.90;99.90;;;;;;5052282;28;20033;-79
2023/05/22 04:37:17;;;;;;;7.07;4.65;;;14.80;99.90;;;;;;5042121;28;20027;-79
2023/05/22 04:39:44;;;;;;;8.13;4.97;;;14.70;99.90;;;;;;5048465;28;20029;-78
2023/05/22 04:42:13;;;;;;;10.60;4.72;;;14.60;99.90;;;;;;5041871;28;20029;-78
2023/05/22 04:44:40;;;;;;;8.63;4.57;;;14.50;99.90;;;;;;5042103;28;20025;-81
2023/05/22 04:47:10;;;;;;;6.65;4.38;;;14.50;99.90;;;;;;5051139;28;20352;-78
2023/05/22 04:49:37;;;;;;;6.45;4.20;;;14.40;99.90;;;;;;5050247;28;20021;-78
2023/05/22 04:52:04;;;;;;;11.93;5.15;;;14.40;99.90;;;;;;5055636;28;20495;-81
2023/05/22 04:54:30;;;;;;;9.93;5.22;;;14.40;99.90;;;;;;5047442;28;20106;-79
2023/05/22 04:56:56;;;;;;;8.52;5.25;;;14.40;99.90;;;;;;5044921;28;20123;-78
2023/05/22 04:59:22;;;;;;;8.00;5.30;;;14.10;99.90;;;;;;5044814;28;20584;-80
2023/05/22 05:01:49;;;;;;;7.93;5.20;;;14.20;99.90;;;;;;5042501;28;20423;-78
2023/05/22 05:04:15;;;;;;;8.70;5.30;;;14.30;99.90;;;;;;5040664;28;20112;-78
2023/05/22 05:06:42;;;;;;;7.93;5.53;;;14.40;99.90;;;;;;5043983;28;20087;-76
2023/05/22 05:09:08;;;;;;;7.60;5.13;;;14.60;99.90;;;;;;5043862;28;20048;-78
2023/05/22 05:11:33;;;;;;;8.80;5.05;;;14.80;99.90;;;;;;5043164;28;20041;-76
2023/05/22 05:13:59;;;;;;;6.78;4.55;;;15.00;99.90;;;;;;5043273;28;20027;-78
2023/05/22 05:16:25;;;;;;;6.93;4.63;;;14.80;99.90;;;;;;5050525;28;20077;-79
2023/05/22 05:18:52;;;;;;;7.43;4.82;;;14.70;99.90;;;;;;5058034;28;20033;-81
2023/05/22 05:21:19;;;;;;;7.72;5.18;;;14.70;99.90;;;;;;5059966;28;20037;-79
2023/05/22 05:23:44;;;;;;;8.88;5.72;;;14.90;99.90;;;;;;5043457;28;20029;-79
2023/05/22 05:26:10;;;;;;;12.40;6.00;;;14.90;99.90;;;;;;5049637;28;20032;-76
2023/05/22 05:28:36;;;;;;;9.32;5.53;;;14.80;99.90;;;;;;5054674;28;20031;-76
2023/05/22 05:31:02;;;;;;;9.75;5.07;;;14.80;99.90;;;;;;5050103;28;20037;-75
2023/05/22 05:33:27;;;;;;;6.82;5.13;;;14.90;99.90;;;;;;5044252;28;20032;-75
2023/05/22 05:35:53;;;;;;;8.52;4.95;;;14.90;99.90;;;;;;5043697;28;20279;-75
2023/05/22 05:38:19;;;;;;;7.20;5.22;;;14.90;99.90;;;;;;5051848;28;20709;-75
2023/05/22 05:40:45;;;;;;;8.80;5.15;;;15.00;99.90;;;;;;5045095;28;20074;-74
2023/05/22 05:43:14;;;;;;;12.65;5.32;;;15.00;99.90;;;;;;5043867;28;20060;-75
2023/05/22 05:45:40;;;;;;;7.28;4.90;;;14.90;99.90;;;;;;5039536;28;20032;-75
2023/05/22 05:48:06;;;;;;;10.68;5.65;;;15.00;99.90;;;;;;5042858;28;20053;-75
2023/05/22 05:50:32;;;;;;;8.50;5.00;;;15.10;99.90;;;;;;5044597;28;20025;-76
2023/05/22 05:52:58;;;;;;;7.95;5.50;;;15.20;99.90;;;;;;5042256;28;20060;-75
2023/05/22 05:55:24;;;;;;;9.40;5.10;;;15.30;99.90;;;;;;5044329;28;20081;-75
2023/05/22 05:57:50;;;;;;;9.90;5.38;;;15.30;99.90;;;;;;5039870;28;20384;-75
2023/05/22 06:00:17;;;;;;;8.05;5.70;;;15.40;99.90;;;;;;5042356;28;20029;-74
2023/05/22 06:02:42;;;;;;;7.18;5.32;;;15.50;99.90;;;;;;5041187;28;20095;-75
2023/05/22 06:05:09;;;;;;;9.32;5.07;;;15.60;99.90;;;;;;5041442;28;20647;-75
2023/05/22 06:07:38;;;;;;;7.53;4.88;;;15.70;99.90;;;;;;5046403;28;20055;-75
2023/05/22 06:10:05;;;;;;;6.30;4.40;;;15.90;99.90;;;;;;5048541;28;20033;-75
2023/05/22 06:12:31;;;;;;;9.48;4.93;;;16.00;99.90;;;;;;5051360;28;20141;-75
2023/05/22 06:14:57;;;;;;;7.38;5.20;;;16.10;99.90;;;;;;5049047;28;20471;-76
2023/05/22 06:17:22;;;;;;;7.93;4.80;;;16.20;99.90;;;;;;5046435;28;20029;-76
2023/05/22 06:19:48;;;;;;;8.18;5.22;;;16.20;99.90;;;;;;5043920;28;20107;-75
2023/05/22 06:22:14;;;;;;;8.27;5.00;;;16.30;99.90;;;;;;5044869;28;20032;-75
2023/05/22 06:24:40;;;;;;;7.00;4.85;;;16.30;99.90;;;;;;5046806;28;20021;-75
2023/05/22 06:27:06;;;;;;;6.75;5.05;;;16.30;99.90;;;;;;5044113;28;20399;-76
2023/05/22 06:29:31;;;;;;;8.00;5.45;;;16.30;99.90;;;;;;5045342;28;20029;-76
2023/05/22 06:31:57;;;;;;;8.27;4.55;;;16.30;99.90;;;;;;5046314;28;20037;-76
2023/05/22 06:34:24;;;;;;;7.90;5.82;;;16.30;99.90;;;;;;5046244;28;20116;-76
2023/05/22 06:36:50;;;;;;;10.80;5.60;;;16.30;99.90;;;;;;5042529;28;20462;-75
2023/05/22 06:39:17;;;;;;;8.00;5.53;;;16.30;99.90;;;;;;5050428;28;20060;-74
2023/05/22 06:41:42;;;;;;;9.77;6.03;;;16.50;99.90;;;;;;5052401;28;20033;-74
2023/05/22 06:44:08;;;;;;;8.10;5.30;;;16.70;99.90;;;;;;5054173;28;20648;-74
2023/05/22 06:46:34;;;;;;;6.88;5.28;;;16.80;99.90;;;;;;5053910;28;20032;-74
2023/05/22 06:48:59;;;;;;;7.07;4.85;;;17.00;99.90;;;;;;5055817;28;20033;-74
2023/05/22 06:51:25;;;;;;;7.65;5.25;;;17.00;99.90;;;;;;5056683;28;20033;-74
2023/05/22 06:53:51;;;;;;;12.88;5.65;;;17.20;99.90;;;;;;5054732;28;20044;-74
2023/05/22 06:56:17;;;;;;;8.02;5.18;;;17.40;99.90;;;;;;5048602;28;20049;-74
2023/05/22 06:58:43;;;;;;;7.28;4.95;;;17.40;99.90;;;;;;5046190;28;20040;-74
2023/05/22 07:01:09;;;;;;;7.47;5.38;;;17.80;99.90;;;;;;5042816;28;20079;-74
2023/05/22 07:03:34;;;;;;;8.30;5.40;;;18.10;99.90;;;;;;5043396;28;20040;-74
2023/05/22 07:06:01;;;;;;;7.68;4.75;;;18.40;99.90;;;;;;5049356;28;20028;-76
2023/05/22 07:08:26;;;;;;;7.18;5.38;;;18.60;99.90;;;;;;5045942;28;20527;-76
2023/05/22 07:10:52;;;;;;;6.65;4.72;;;18.70;99.90;;;;;;5049858;28;20032;-75
2023/05/22 07:13:18;;;;;;;7.53;4.22;;;18.90;99.90;;;;;;5043409;28;20044;-76
2023/05/22 07:15:45;;;;;;;6.95;4.80;;;19.00;99.90;;;;;;5046900;28;20116;-76
2023/05/22 07:18:11;;;;;;;9.20;4.82;;;19.30;99.90;;;;;;5046826;28;20037;-76
2023/05/22 07:20:36;;;;;;;12.75;4.80;;;19.60;99.90;;;;;;5049915;28;20023;-76
2023/05/22 07:23:02;;;;;;;6.85;4.20;;;20.30;99.90;;;;;;5047316;28;20525;-76
2023/05/22 07:25:28;;;;;;;6.20;4.28;;;21.00;99.90;;;;;;5044982;28;20487;-75
2023/05/22 07:27:54;;;;;;;6.45;4.60;;;22.10;99.90;;;;;;5042935;28;20025;-76
2023/05/22 07:30:20;;;;;;;6.25;3.22;;;23.10;99.40;;;;;;5048396;28;20035;-76
2023/05/22 07:32:47;;;;;;;6.88;4.45;;;23.50;96.60;;;;;;5059303;28;20039;-75
2023/05/22 07:35:13;;;;;;;7.15;4.32;;;24.00;96.40;;;;;;5043192;28;20032;-75
2023/05/22 07:37:38;;;;;;;6.13;4.13;;;25.10;95.10;;;;;;5043316;28;20037;-76
2023/05/22 07:40:08;;;;;;;6.78;4.00;;;25.60;94.50;;;;;;5052311;28;20033;-76
2023/05/22 07:42:34;;;;;;;7.22;4.75;;;25.20;95.30;;;;;;5047814;28;20025;-76
2023/05/22 07:45:00;;;;;;;7.95;4.60;;;25.50;95.30;;;;;;5049272;28;20040;-76
2023/05/22 07:47:26;;;;;;;7.47;4.32;;;25.60;95.20;;;;;;5043239;28;20099;-76
2023/05/22 07:49:52;;;;;;;6.50;4.43;;;25.00;95.10;;;;;;5052106;28;20024;-76
2023/05/22 07:52:18;;;;;;;6.85;4.32;;;24.80;95.40;;;;;;5055933;28;21178;-76
2023/05/22 07:54:43;;;;;;;7.80;4.50;;;25.10;95.30;;;;;;5045419;28;20025;-76
2023/05/22 07:57:11;;;;;;;6.30;4.85;;;25.20;94.90;;;;;;5048975;28;20032;-76
2023/05/22 07:59:37;;;;;;;9.95;4.70;;;24.10;96.20;;;;;;5050176;28;20029;-76
2023/05/22 08:02:03;;;;;;;8.23;4.68;;;24.10;95.40;;;;;;5041508;28;20094;-76
2023/05/22 08:04:28;;;;;;;6.43;3.97;;;23.50;95.70;;;;;;5041370;28;20033;-76
2023/05/22 08:06:54;;;;;;;7.38;4.32;;;23.40;95.40;;;;;;5040292;28;20035;-75
2023/05/22 08:09:20;;;;;;;8.75;4.45;;;23.40;95.90;;;;;;5047921;28;20169;-76
2023/05/22 08:11:46;;;;;;;6.95;4.38;;;22.80;96.30;;;;;;5042955;28;20056;-76
2023/05/22 08:14:12;;;;;;;6.63;4.68;;;22.90;96.80;;;;;;5045722;28;20032;-76
2023/05/22 08:16:37;;;;;;;5.93;3.97;;;22.30;96.80;;;;;;5047593;28;20031;-75
2023/05/22 08:19:05;;;;;;;6.13;4.57;;;21.40;97.40;;;;;;5045668;28;20047;-75
2023/05/22 08:21:33;;;;;;;7.55;5.00;;;21.60;98.30;;;;;;5051208;28;20090;-76
2023/05/22 08:24:00;;;;;;;9.82;4.93;;;21.40;97.80;;;;;;5040634;28;20082;-75
2023/05/22 08:26:25;;;;;;;7.32;4.72;;;21.50;98.40;;;;;;5050865;28;20033;-75
2023/05/22 08:28:51;;;;;;;5.60;4.25;;;21.70;97.90;;;;;;5054207;28;20448;-76
2023/05/22 08:31:17;;;;;;;7.72;4.72;;;21.30;98.20;;;;;;5054934;28;20032;-75
2023/05/22 08:33:43;;;;;;;7.93;4.55;;;21.40;98.50;;;;;;5044105;28;20083;-76
2023/05/22 08:36:09;;;;;;;8.18;5.10;;;21.80;98.40;;;;;;5046062;28;20029;-75
2023/05/22 08:38:35;;;;;;;7.03;4.65;;;21.90;98.40;;;;;;5040892;28;20044;-75
2023/05/22 08:41:01;;;;;;;8.20;4.75;;;21.90;97.70;;;;;;5041716;28;20052;-75
2023/05/22 08:43:28;;;;;;;9.40;4.82;;;21.50;97.40;;;;;;5049920;28;20163;-76
2023/05/22 08:46:03;;;;;;;8.30;4.90;;;21.80;99.00;;;;;;5045829;28;20910;-75
2023/05/22 08:48:33;;;;;;;17.55;6.85;;;21.90;99.00;;;;;;5039667;28;20029;-76
2023/05/22 08:51:12;;;;;;;10.38;5.53;;;21.90;99.40;;;;;;5051518;28;20118;-75
2023/05/22 08:53:39;;;;;;;8.93;5.38;;;21.90;97.80;;;;;;5043200;28;20437;-75
2023/05/22 08:56:07;;;;;;;7.38;4.80;;;22.20;97.90;;;;;;5050058;28;20041;-75
2023/05/22 08:58:36;;;;;;;7.25;4.65;;;22.30;98.00;;;;;;5044102;28;20071;-75
2023/05/22 09:01:06;;;;;;;8.35;5.18;;;22.40;97.90;;;;;;5040823;28;20052;-75
2023/05/22 09:03:31;;;;;;;6.95;4.88;;;22.40;98.40;;;;;;5040695;28;20021;-76
2023/05/22 09:06:03;;;;;;;7.78;5.35;;;22.70;98.20;;;;;;5046964;28;20029;-76
2023/05/22 09:08:28;;;;;;;9.95;5.30;;;22.60;98.00;;;;;;5042718;28;20024;-76
2023/05/22 09:10:55;;;;;;;7.22;4.60;;;22.40;97.60;;;;;;5047913;28;20123;-76
2023/05/22 09:13:28;;;;;;;9.00;5.10;;;22.60;97.90;;;;;;5050263;28;20407;-76
2023/05/22 09:16:12;;;;;;;15.70;7.93;;;22.80;98.90;;;;;;5045078;28;20487;-75
2023/05/22 09:18:39;;;;;;;7.40;5.43;;;23.00;99.20;;;;;;5047680;28;20043;-75
2023/05/22 09:21:06;;;;;;;8.73;5.65;;;22.70;97.80;;;;;;5047106;28;20028;-75
2023/05/22 09:23:32;;;;;;;8.55;5.00;;;22.80;98.40;;;;;;5050333;28;20449;-76
2023/05/22 09:25:59;;;;;;;7.47;5.03;;;22.90;98.00;;;;;;5050282;28;20032;-75
2023/05/22 09:28:25;;;;;;;7.55;5.25;;;22.80;98.00;;;;;;5046802;28;20828;-76
2023/05/22 09:30:53;;;;;;;8.85;5.35;;;22.90;97.60;;;;;;5044146;28;20079;-75
2023/05/22 09:33:21;;;;;;;6.65;5.13;;;23.00;97.60;;;;;;5044578;28;20103;-76
2023/05/22 09:35:48;;;;;;;8.40;5.10;;;23.10;98.00;;;;;;5045956;28;20607;-76
2023/05/22 09:38:14;;;;;;;7.45;5.38;;;22.90;98.50;;;;;;5050216;28;20036;-75
2023/05/22 09:40:40;;;;;;;9.57;6.07;;;23.50;97.90;;;;;;5046758;28;20400;-76
2023/05/22 09:43:10;;;;;;;10.70;5.95;;;23.70;98.00;;;;;;5046974;28;20047;-75
2023/05/22 09:45:37;;;;;;;7.28;5.03;;;23.90;98.20;;;;;;5046545;28;20025;-75
2023/05/22 09:48:07;;;;;;;7.18;5.03;;;24.20;97.40;;;;;;5054706;28;20124;-76
2023/05/22 09:50:33;;;;;;;8.38;5.22;;;24.60;96.80;;;;;;5051656;28;20525;-76
2023/05/22 09:53:03;;;;;;;8.70;4.82;;;24.70;96.70;;;;;;5053241;28;20036;-75
2023/05/22 09:55:30;;;;;;;8.50;5.78;;;24.60;96.50;;;;;;5053384;28;20048;-76
2023/05/22 09:57:57;;;;;;;7.55;4.68;;;24.20;96.30;;;;;;5052376;28;20498;-76
2023/05/22 10:00:24;;;;;;;8.80;5.05;;;24.00;96.30;;;;;;5056524;28;20108;-76
2023/05/22 10:03:02;;;;;;;8.27;5.45;;;24.10;96.30;;;;;;5048586;28;20036;-76
2023/05/22 10:05:30;;;;;;;8.35;5.05;;;24.40;97.00;;;;;;5052708;28;20021;-76
2023/05/22 10:08:01;;;;;;;6.97;5.00;;;24.30;96.80;;;;;;5052052;28;20033;-76
2023/05/22 10:10:27;;;;;;;7.97;5.10;;;24.50;96.20;;;;;;5044427;28;20033;-76
2023/05/22 10:12:59;;;;;;;8.02;5.07;;;24.50;95.30;;;;;;5047616;28;20029;-76
2023/05/22 10:15:26;;;;;;;6.57;4.97;;;24.40;95.90;;;;;;5047380;28;20060;-76
2023/05/22 10:17:52;;;;;;;8.15;5.15;;;24.70;96.50;;;;;;5046027;28;20033;-76
2023/05/22 10:20:18;;;;;;;9.60;4.82;;;24.90;95.30;;;;;;5045783;28;20259;-76
2023/05/22 10:22:45;;;;;;;7.35;4.47;;;25.20;95.70;;;;;;5041919;28;20537;-76
2023/05/22 10:25:12;;;;;;;7.57;5.30;;;25.40;95.30;;;;;;5048006;28;20032;-76
2023/05/22 10:27:39;;;;;;;6.85;5.30;;;25.40;94.70;;;;;;5048281;28;20047;-76
2023/05/22 10:30:08;;;;;;;6.20;4.65;;;25.00;95.10;;;;;;5045271;28;20078;-76
2023/05/22 10:33:04;;;;;;;7.70;4.70;;;25.30;94.60;;;;;;5047233;28;20036;-76
2023/05/22 10:35:54;;;;;;;10.25;5.57;;;25.40;95.10;;;;;;5036743;28;20561;-76
2023/05/22 10:38:49;;;;;;;8.25;4.57;;;25.20;94.70;;;;;;5044376;28;20379;-76
2023/05/22 10:41:15;;;;;;;8.82;4.22;;;25.50;94.70;;;;;;5047484;28;20033;-76
2023/05/22 10:43:42;;;;;;;8.05;4.63;;;25.40;93.50;;;;;;5043246;28;20511;-76
2023/05/22 10:46:10;;;;;;;7.47;4.72;;;25.40;94.10;;;;;;5044164;28;20052;-76
2023/05/22 10:48:50;;;;;;;6.35;4.20;;;25.40;94.90;;;;;;5043666;28;20028;-76
2023/05/22 10:51:21;;;;;;;8.93;5.15;;;25.40;94.20;;;;;;5051863;28;20036;-76
2023/05/22 10:53:54;;;;;;;8.23;4.70;;;25.30;94.70;;;;;;5044001;28;20581;-76
2023/05/22 10:56:20;;;;;;;6.87;4.33;;;25.40;93.50;;;;;;5045270;28;20071;-76
2023/05/22 10:58:56;;;;;;;10.35;4.47;;;25.20;93.70;;;;;;5061397;28;20291;-76
2023/05/22 11:01:25;;;;;;;6.22;4.03;;;25.30;94.60;;;;;;5047386;28;20025;-76
2023/05/22 11:03:56;;;;;;;9.48;5.10;;;25.70;94.10;;;;;;5049545;28;20025;-76
2023/05/22 11:06:44;;;;;;;7.20;5.07;;;25.50;93.80;;;;;;5048591;28;20033;-75
2023/05/22 11:09:52;;;;;;;11.80;4.28;;;25.60;93.70;;;;;;5045461;28;20053;-76
2023/05/22 11:12:23;;;;;;;6.85;4.32;;;26.20;94.40;;;;;;5044965;28;20475;-76
2023/05/22 11:15:08;;;;;;;7.57;4.65;;;26.40;95.10;;;;;;5045827;28;20041;-76
2023/05/22 11:17:45;;;;;;;7.25;4.03;;;26.00;94.80;;;;;;5051816;28;20040;-75
2023/05/22 11:20:11;;;;;;;8.10;4.93;;;25.90;94.90;;;;;;5051869;28;20036;-75
2023/05/22 11:22:42;;;;;;;7.07;4.95;;;25.90;95.50;;;;;;5056369;28;20024;-76
2023/05/22 11:25:15;;;;;;;7.90;4.32;;;25.90;94.10;;;;;;5053776;28;20033;-77
2023/05/22 11:27:41;;;;;;;5.60;3.85;;;26.10;94.00;;;;;;5052626;28;20056;-75
2023/05/22 11:30:08;;;;;;;6.07;3.80;;;26.30;94.00;;;;;;5045551;28;20523;-75
2023/05/22 11:32:39;;;;;;;6.35;3.55;;;26.50;93.60;;;;;;5045748;28;20029;-75
2023/05/22 11:35:07;;;;;;;6.35;4.07;;;26.70;92.70;;;;;;5053925;28;20098;-75
2023/05/22 11:37:39;;;;;;;5.88;3.67;;;26.80;92.10;;;;;;5051147;28;20596;-75
2023/05/22 11:40:06;;;;;;;8.05;4.45;;;26.60;91.60;;;;;;5044850;28;20028;-75
2023/05/22 11:42:32;;;;;;;6.47;4.00;;;27.00;90.20;;;;;;5045919;28;20111;-75
2023/05/22 11:44:58;;;;;;;7.47;4.03;;;26.90;89.20;;;;;;5046235;28;20103;-75
2023/05/22 11:47:30;;;;;;;11.95;4.03;;;26.80;90.50;;;;;;5049802;28;20021;-75
2023/05/22 11:49:57;;;;;;;6.45;4.10;;;27.00;88.60;;;;;;5043958;28;20061;-75
2023/05/22 11:52:23;;;;;;;7.65;4.00;;;27.10;90.40;;;;;;5044794;28;20044;-76
2023/05/22 11:54:51;;;;;;;9.02;3.83;;;27.30;89.70;;;;;;5049532;28;20498;-76
2023/05/22 11:57:18;;;;;;;8.40;3.75;;;27.30;88.60;;;;;;5047402;28;20064;-76
2023/05/22 11:59:47;;;;;;;8.00;3.90;;;27.40;89.90;;;;;;5046852;28;20024;-76
2023/05/22 12:02:14;;;;;;;5.93;3.97;;;27.40;90.20;;;;;;5042921;28;20048;-76
2023/05/22 12:04:40;;;;;;;7.18;3.70;;;27.40;89.60;;;;;;5044765;28;20836;-76
2023/05/22 12:07:06;;;;;;;6.38;4.13;;;27.40;90.40;;;;;;5042876;28;20051;-77
2023/05/22 12:09:32;;;;;;;7.68;4.20;;;27.30;91.00;;;;;;5043922;28;20028;-76
2023/05/22 12:11:58;;;;;;;6.53;4.20;;;27.30;91.10;;;;;;5042066;28;20043;-77
2023/05/22 12:14:30;;;;;;;6.50;4.90;;;26.70;90.30;;;;;;5046005;28;20042;-77
2023/05/22 12:16:57;;;;;;;7.03;4.32;;;26.70;90.20;;;;;;5046539;28;20063;-76
2023/05/22 12:19:25;;;;;;;6.97;3.67;;;26.80;90.80;;;;;;5041360;28;20048;-76
2023/05/22 12:21:51;;;;;;;9.85;3.40;;;27.20;90.20;;;;;;5043403;28;20075;-76
2023/05/22 12:24:22;;;;;;;9.02;4.25;;;27.30;91.30;;;;;;5044435;28;20025;-77
2023/05/22 12:26:51;;;;;;;8.13;4.38;;;27.30;90.80;;;;;;5048092;28;20029;-76
2023/05/22 12:29:17;;;;;;;6.03;3.70;;;27.30;89.90;;;;;;5047343;28;20044;-77
2023/05/22 12:31:47;;;;;;;6.80;3.83;;;27.50;90.20;;;;;;5044474;28;20032;-77
2023/05/22 12:34:15;;;;;;;7.28;3.95;;;27.70;88.20;;;;;;5044998;28;20052;-77
2023/05/22 12:36:44;;;;;;;6.45;4.43;;;27.60;87.40;;;;;;5041156;28;20029;-77
2023/05/22 12:39:12;;;;;;;5.72;4.22;;;27.50;88.10;;;;;;5042549;28;20541;-76
2023/05/22 12:41:38;;;;;;;7.72;3.92;;;27.50;87.90;;;;;;5043627;28;20123;-76
2023/05/22 12:44:04;;;;;;;6.75;4.68;;;27.60;87.50;;;;;;5041832;28;20560;-76
2023/05/22 12:46:30;;;;;;;9.07;4.20;;;27.80;87.50;;;;;;5041683;28;20055;-78
2023/05/22 12:48:56;;;;;;;7.63;3.97;;;27.80;85.70;;;;;;5045263;28;20051;-78